Terminal Aerodrome Forecast
Issued by NWS Charleston, WV

Home | Current Version | Previous Version | Text Only | Print | Product List | Glossary On
Versions: 1 2 3 4 5 6 7 8 9 10 11 12 13 14 15 16 17 18 19 20 21 22 23 24 25
000
FTUS41 KRLX 261700
TAFBKW
TAF
KBKW 261740Z 2618/2718 24006KT P6SM SCT045
     FM270600 26006KT P6SM BKN050
     FM270900 24005KT P6SM TSRA BKN030CB
     FM271200 24006KT 3SM TSRA BKN020CB=

USA.gov is the U.S. government's official web portal to all federal, state and local government web resources and services.